createdAt,value
2022-11-18T00:01:22.296Z,97736.03
2022-11-18T00:03:50.716Z,97692.97
2022-11-18T00:06:20.321Z,97728.41
2022-11-18T00:08:47.374Z,97725.78
2022-11-18T00:11:20.250Z,97744.25
2022-11-18T00:13:47.137Z,97722.81
2022-11-18T00:16:14.007Z,97714.09
2022-11-18T00:18:40.991Z,97729.63
2022-11-18T00:21:10.142Z,97720.13
2022-11-18T00:23:38.217Z,97723.84
2022-11-18T00:26:07.303Z,97705.94
2022-11-18T00:28:34.328Z,97719.34
2022-11-18T00:31:05.894Z,97733.81
2022-11-18T00:33:34.136Z,97723.44
2022-11-18T00:36:00.962Z,97721.59
2022-11-18T00:38:29.359Z,97710.66
2022-11-18T00:41:05.115Z,97716.53
2022-11-18T00:43:32.174Z,97691.94
2022-11-18T00:45:59.007Z,97697.72
2022-11-18T00:48:26.378Z,97689.50
2022-11-18T00:50:56.405Z,97684.97
2022-11-18T00:53:25.389Z,97685.63
2022-11-18T00:55:52.885Z,97692.41
2022-11-18T00:58:20.079Z,97651.69
2022-11-18T01:00:50.720Z,97673.31
2022-11-18T01:03:18.927Z,97673.50
2022-11-18T01:05:45.928Z,97663.28
2022-11-18T01:10:58.041Z,97658.66
2022-11-18T01:13:24.878Z,97667.72
2022-11-18T01:15:55.207Z,97646.34
2022-11-18T01:18:25.181Z,97666.66
2022-11-18T01:20:52.571Z,97648.00
2022-11-18T01:23:20.945Z,97644.97
2022-11-18T01:25:49.638Z,97639.91
2022-11-18T01:28:23.297Z,97648.06
2022-11-18T01:30:51.372Z,97639.50
2022-11-18T01:33:18.290Z,97635.72
2022-11-18T01:35:45.587Z,97643.44
2022-11-18T01:38:14.241Z,97625.03
2022-11-18T01:40:42.140Z,97633.41
2022-11-18T01:43:18.853Z,97635.84
2022-11-18T01:45:47.784Z,97649.44
2022-11-18T01:48:26.335Z,97637.69
2022-11-18T01:51:07.106Z,97639.19
2022-11-18T01:53:53.883Z,97624.72
2022-11-18T01:56:26.784Z,97628.00
2022-11-18T01:58:57.983Z,97629.72
2022-11-18T02:01:25.194Z,97643.25
2022-11-18T02:03:53.687Z,97621.16
2022-11-18T02:06:21.243Z,97618.81
2022-11-18T02:08:49.821Z,97590.13
2022-11-18T02:11:17.444Z,97612.44
2022-11-18T02:13:44.380Z,97605.31
2022-11-18T02:16:26.400Z,97612.53
2022-11-18T02:19:01.886Z,97624.19
2022-11-18T02:21:46.341Z,97607.00
2022-11-18T02:24:34.961Z,97594.97
2022-11-18T02:27:42.685Z,97600.84
2022-11-18T02:30:12.610Z,97590.59
2022-11-18T02:32:42.657Z,97601.06
2022-11-18T02:35:42.281Z,97583.31
2022-11-18T02:38:15.034Z,97567.72
2022-11-18T02:40:49.977Z,97596.25
2022-11-18T02:43:23.658Z,97555.28
2022-11-18T02:45:54.095Z,97577.84
2022-11-18T02:48:24.300Z,97536.56
2022-11-18T02:50:53.024Z,97550.81
2022-11-18T02:53:21.553Z,97575.25
2022-11-18T02:55:49.937Z,97557.41
2022-11-18T02:58:20.272Z,97546.91
2022-11-18T03:00:58.591Z,97548.69
2022-11-18T03:03:34.293Z,97551.13
2022-11-18T03:06:10.110Z,97542.25
2022-11-18T03:08:47.602Z,97540.72
2022-11-18T03:11:22.973Z,97545.47
2022-11-18T03:14:26.541Z,97540.09
2022-11-18T03:17:21.799Z,97512.31
2022-11-18T03:20:06.655Z,97521.94
2022-11-18T03:22:43.596Z,97534.97
2022-11-18T03:25:28.715Z,97539.50
2022-11-18T03:28:07.823Z,97524.97
2022-11-18T03:30:39.978Z,97523.16
2022-11-18T03:33:14.410Z,97524.22
2022-11-18T03:35:47.808Z,97527.00
2022-11-18T03:38:25.675Z,97536.25
2022-11-18T03:40:57.910Z,97521.38
2022-11-18T03:43:30.047Z,97511.75
2022-11-18T03:46:05.719Z,97521.00
2022-11-18T03:48:41.423Z,97490.66
2022-11-18T03:51:11.767Z,97515.69
2022-11-18T03:53:46.190Z,97488.16
2022-11-18T03:56:18.271Z,97488.59
2022-11-18T03:58:56.410Z,97523.44
2022-11-18T04:01:39.994Z,97523.88
2022-11-18T04:04:07.748Z,97490.66
2022-11-18T04:07:09.405Z,97510.63
2022-11-18T04:09:44.797Z,97494.03
2022-11-18T04:12:15.962Z,97502.19
2022-11-18T04:14:44.729Z,97515.78
2022-11-18T04:17:14.642Z,97487.41
2022-11-18T04:19:42.503Z,97495.84
2022-11-18T04:22:10.499Z,97503.00
2022-11-18T04:24:37.526Z,97488.63
2022-11-18T04:27:05.152Z,97514.13
2022-11-18T04:29:33.279Z,97477.88
2022-11-18T04:32:04.512Z,97503.66
2022-11-18T04:34:31.846Z,97446.47
2022-11-18T04:36:59.160Z,97469.81
2022-11-18T04:39:26.253Z,97463.47
2022-11-18T04:41:53.161Z,97472.38
2022-11-18T04:44:20.296Z,97461.66
2022-11-18T04:46:47.177Z,97460.13
2022-11-18T04:49:15.786Z,97465.38
2022-11-18T04:51:44.530Z,97476.75
2022-11-18T04:54:12.617Z,97448.28
2022-11-18T04:56:44.270Z,97466.47
2022-11-18T04:59:18.553Z,97443.53
2022-11-18T05:01:45.745Z,97455.72
2022-11-18T05:04:14.986Z,97436.44
2022-11-18T05:06:42.109Z,97439.81
2022-11-18T05:09:10.002Z,97440.16
2022-11-18T05:11:37.044Z,97443.81
2022-11-18T05:14:04.158Z,97456.47
2022-11-18T05:16:31.053Z,97439.38
2022-11-18T05:18:57.991Z,97435.00
2022-11-18T05:21:24.988Z,97423.47
2022-11-18T05:23:51.921Z,97436.41
2022-11-18T05:26:18.733Z,97443.09
2022-11-18T05:28:45.700Z,97438.66
2022-11-18T05:31:15.518Z,97446.00
2022-11-18T05:33:43.512Z,97419.41
2022-11-18T05:36:15.986Z,97434.19
2022-11-18T05:38:43.565Z,97423.91
2022-11-18T05:41:11.216Z,97435.06
2022-11-18T05:43:38.213Z,97422.41
2022-11-18T05:46:05.209Z,97432.13
2022-11-18T05:48:32.142Z,97422.50
2022-11-18T05:50:59.050Z,97421.72
2022-11-18T05:53:26.065Z,97431.44
2022-11-18T05:55:59.264Z,97416.19
2022-11-18T05:58:26.265Z,97394.28
2022-11-18T06:00:57.394Z,97408.75
2022-11-18T06:03:31.267Z,97402.47
2022-11-18T06:06:01.910Z,97415.44
2022-11-18T06:08:33.211Z,97406.16
2022-11-18T06:11:00.677Z,97398.03
2022-11-18T06:13:35.198Z,97397.31
2022-11-18T06:16:03.016Z,97384.66
2022-11-18T06:18:33.395Z,97401.38
2022-11-18T06:21:05.769Z,97383.97
2022-11-18T06:23:37.443Z,97366.19
2022-11-18T06:26:04.554Z,97358.75
2022-11-18T06:28:31.724Z,97358.84
2022-11-18T06:30:58.691Z,97346.97
2022-11-18T06:33:25.589Z,97367.69
2022-11-18T06:35:52.613Z,97362.91
2022-11-18T06:38:19.446Z,97340.69
2022-11-18T06:40:46.454Z,97368.47
2022-11-18T06:43:13.397Z,97346.59
2022-11-18T06:45:40.494Z,97349.53
2022-11-18T06:48:07.335Z,97344.41
2022-11-18T06:50:34.527Z,97368.13
2022-11-18T06:53:01.494Z,97364.81
2022-11-18T06:55:28.455Z,97355.88
2022-11-18T06:57:57.012Z,97352.56
2022-11-18T07:00:23.960Z,97336.63
2022-11-18T07:02:50.850Z,97328.13
2022-11-18T07:05:17.837Z,97351.84
2022-11-18T07:07:44.769Z,97343.31
2022-11-18T07:10:11.760Z,97336.63
2022-11-18T07:12:38.683Z,97323.31
2022-11-18T07:15:06.035Z,97297.00
2022-11-18T07:17:33.117Z,97331.44
2022-11-18T07:20:00.088Z,97337.00
2022-11-18T07:22:26.984Z,97327.03
2022-11-18T07:24:53.928Z,97336.97
2022-11-18T07:27:20.836Z,97328.50
2022-11-18T07:29:47.792Z,97311.47
2022-11-18T07:32:14.818Z,97345.53
2022-11-18T07:34:41.787Z,97328.13
2022-11-18T07:37:08.664Z,97318.13
2022-11-18T07:39:35.655Z,97338.13
2022-11-18T07:42:02.773Z,97329.25
2022-11-18T07:44:29.700Z,97337.00
2022-11-18T07:46:56.594Z,97314.44
2022-11-18T07:49:23.696Z,97332.22
2022-11-18T07:51:50.711Z,97325.56
2022-11-18T07:54:17.733Z,97335.91
2022-11-18T07:56:44.703Z,97307.03
2022-11-18T07:59:11.832Z,97333.72
2022-11-18T08:01:38.755Z,97316.28
2022-11-18T08:04:12.326Z,97331.47
2022-11-18T08:06:39.949Z,97335.91
2022-11-18T08:09:08.505Z,97348.91
2022-11-18T08:11:36.201Z,97329.53
2022-11-18T08:14:03.349Z,97342.53
2022-11-18T08:16:30.712Z,97332.50
2022-11-18T08:18:59.342Z,97332.09
2022-11-18T08:21:26.477Z,97343.66
2022-11-18T08:23:55.822Z,97338.03
2022-11-18T08:26:23.758Z,97330.97
2022-11-18T08:28:51.631Z,97288.75
2022-11-18T08:31:24.026Z,97332.81
2022-11-18T08:34:00.584Z,97365.69
2022-11-18T08:36:29.964Z,97347.47
2022-11-18T08:38:58.357Z,97359.25
2022-11-18T08:41:31.714Z,97361.41
2022-11-18T08:43:58.947Z,97363.59
2022-11-18T08:46:25.999Z,97365.75
2022-11-18T08:48:53.103Z,97378.31
2022-11-18T08:51:20.016Z,97390.19
2022-11-18T08:53:47.312Z,97373.84
2022-11-18T08:56:20.064Z,97380.13
2022-11-18T08:58:47.263Z,97385.19
2022-11-18T09:01:14.398Z,97387.47
2022-11-18T09:03:41.667Z,97375.97
2022-11-18T09:06:19.745Z,97401.25
2022-11-18T09:08:47.329Z,97403.50
2022-11-18T09:11:19.664Z,97399.66
2022-11-18T09:14:25.861Z,97404.38
2022-11-18T09:16:35.192Z,97391.13
2022-11-18T09:19:18.525Z,97393.66
2022-11-18T09:21:49.771Z,97416.97
2022-11-18T09:24:17.319Z,97394.38
2022-11-18T09:26:44.495Z,97413.63
2022-11-18T09:29:11.420Z,97440.38
2022-11-18T09:31:38.481Z,97421.22
2022-11-18T09:34:05.476Z,97425.91
2022-11-18T09:36:32.484Z,97436.22
2022-11-18T09:39:00.315Z,97413.19
2022-11-18T09:41:36.132Z,97443.75
2022-11-18T09:44:21.665Z,97446.16
2022-11-18T09:46:48.568Z,97442.06
2022-11-18T09:49:24.510Z,97443.44
2022-11-18T09:51:52.971Z,97436.56
2022-11-18T09:54:23.324Z,97465.78
2022-11-18T09:56:53.172Z,97453.03
2022-11-18T09:59:23.837Z,97452.94
2022-11-18T10:01:53.106Z,97470.03
2022-11-18T10:04:21.496Z,97466.56
2022-11-18T10:06:49.933Z,97472.47
2022-11-18T10:09:33.275Z,97452.03
2022-11-18T10:12:27.839Z,97473.19
2022-11-18T10:15:15.738Z,97486.06
2022-11-18T10:18:58.683Z,97472.13
2022-11-18T10:21:44.648Z,97492.28
2022-11-18T10:24:21.283Z,97502.66
2022-11-18T10:26:55.761Z,97479.03
2022-11-18T10:29:22.767Z,97502.00
2022-11-18T10:32:13.290Z,97529.22
2022-11-18T10:34:54.943Z,97541.31
2022-11-18T10:38:05.829Z,97540.50
2022-11-18T10:40:28.296Z,97557.03
2022-11-18T10:42:55.751Z,97567.94
2022-11-18T10:45:22.544Z,97582.09
2022-11-18T10:48:15.650Z,97575.06
2022-11-18T10:50:43.795Z,97563.91
2022-11-18T10:53:32.289Z,97556.84
2022-11-18T10:56:00.670Z,97575.31
2022-11-18T10:58:31.656Z,97591.03
2022-11-18T11:01:25.391Z,97609.63
2022-11-18T11:04:04.971Z,97600.34
2022-11-18T11:06:35.715Z,97603.31
2022-11-18T11:09:14.684Z,97610.72
2022-11-18T11:12:00.300Z,97622.59
2022-11-18T11:14:34.997Z,97612.97
2022-11-18T11:17:20.039Z,97637.09
2022-11-18T11:20:05.577Z,97618.53
2022-11-18T11:22:33.010Z,97613.72
2022-11-18T11:24:59.862Z,97645.97
2022-11-18T11:30:53.784Z,97646.19
2022-11-18T11:33:30.877Z,97676.53
2022-11-18T11:36:26.049Z,97692.81
2022-11-18T11:39:04.569Z,97679.81
2022-11-18T11:41:55.225Z,97689.41
2022-11-18T11:44:37.398Z,97704.25
2022-11-18T11:47:37.938Z,97703.94
2022-11-18T11:51:04.334Z,97730.00
2022-11-18T11:53:43.991Z,97725.81
2022-11-18T11:56:35.617Z,97742.47
2022-11-18T11:59:27.035Z,97720.09
2022-11-18T12:02:26.441Z,97755.88
2022-11-18T12:04:57.294Z,97791.97
2022-11-18T12:07:32.311Z,97776.75
2022-11-18T12:10:29.124Z,97786.97
2022-11-18T12:13:23.901Z,97776.41
2022-11-18T12:15:50.788Z,97792.38
2022-11-18T12:18:37.359Z,97810.81
2022-11-18T12:21:04.446Z,97809.66
2022-11-18T12:23:32.579Z,97822.22
2022-11-18T12:26:05.737Z,97819.81
2022-11-18T12:28:38.394Z,97812.09
2022-11-18T12:31:20.526Z,97841.31
2022-11-18T12:33:48.552Z,97839.94
2022-11-18T12:36:34.696Z,97836.97
2022-11-18T12:39:23.513Z,97834.81
2022-11-18T12:41:56.214Z,97816.03
2022-11-18T12:44:25.263Z,97842.22
2022-11-18T12:46:54.816Z,97844.88
2022-11-18T12:49:21.689Z,97874.41
2022-11-18T12:51:52.498Z,97886.91
2022-11-18T12:54:39.699Z,97875.19
2022-11-18T12:57:20.915Z,97889.78
2022-11-18T12:59:48.285Z,97895.94
2022-11-18T13:02:26.986Z,97886.25
2022-11-18T13:05:10.734Z,97919.69
2022-11-18T13:07:47.284Z,97898.34
2022-11-18T13:10:23.651Z,97912.34
2022-11-18T13:12:51.762Z,97903.22
2022-11-18T13:15:18.934Z,97926.19
2022-11-18T13:17:45.955Z,97925.56
2022-11-18T13:20:32.499Z,97935.88
2022-11-18T13:23:31.106Z,97940.16
2022-11-18T13:26:28.395Z,97965.25
2022-11-18T13:29:03.323Z,97953.38
2022-11-18T13:31:30.227Z,97974.16
2022-11-18T13:34:08.818Z,97990.03
2022-11-18T13:36:43.795Z,98004.97
2022-11-18T13:39:30.536Z,98003.47
2022-11-18T13:42:06.829Z,97989.34
2022-11-18T13:44:36.025Z,98008.75
2022-11-18T13:47:21.891Z,98031.09
2022-11-18T13:49:55.455Z,98015.94
2022-11-18T13:52:42.593Z,98040.28
2022-11-18T13:55:14.007Z,98043.34
2022-11-18T13:57:41.801Z,98048.81
2022-11-18T14:00:21.754Z,98051.72
2022-11-18T14:02:56.853Z,98054.13
2022-11-18T14:05:25.074Z,98070.00
2022-11-18T14:08:04.939Z,98074.78
2022-11-18T14:10:39.671Z,98090.56
2022-11-18T14:13:18.699Z,98089.16
2022-11-18T14:15:45.950Z,98087.31
2022-11-18T14:18:44.527Z,98101.84
2022-11-18T14:21:12.606Z,98125.94
2022-11-18T14:23:43.606Z,98116.00
2022-11-18T14:26:10.727Z,98133.03
2022-11-18T14:28:38.513Z,98123.97
2022-11-18T14:31:23.638Z,98133.84
2022-11-18T14:34:14.422Z,98147.59
2022-11-18T14:36:41.589Z,98271.63
2022-11-18T14:39:27.375Z,98162.94
2022-11-18T14:41:56.299Z,98163.13
2022-11-18T14:44:26.075Z,98167.34
2022-11-18T14:46:59.693Z,98174.56
2022-11-18T14:49:28.670Z,98164.00
2022-11-18T14:51:55.551Z,98196.66
2022-11-18T14:54:26.847Z,98184.56
2022-11-18T14:57:03.261Z,98207.94
2022-11-18T14:59:30.535Z,98205.06
2022-11-18T15:01:57.521Z,98225.34
2022-11-18T15:04:24.679Z,98218.25
2022-11-18T15:06:51.559Z,98224.81
2022-11-18T15:09:18.691Z,98224.81
2022-11-18T15:11:45.601Z,98210.28
2022-11-18T15:14:12.625Z,98249.75
2022-11-18T15:16:39.556Z,98244.75
2022-11-18T15:19:06.626Z,98234.78
2022-11-18T15:21:33.918Z,98243.94
2022-11-18T15:24:01.004Z,98240.69
2022-11-18T15:26:34.746Z,98269.56
2022-11-18T15:29:01.741Z,98275.31
2022-11-18T15:31:28.779Z,98274.28
2022-11-18T15:33:55.960Z,98289.59
2022-11-18T15:36:25.630Z,98289.88
2022-11-18T15:38:54.448Z,98283.13
2022-11-18T15:41:26.703Z,98296.59
2022-11-18T15:43:55.494Z,98302.25
2022-11-18T15:46:24.405Z,98297.06
2022-11-18T15:48:52.743Z,98314.19
2022-11-18T15:51:19.748Z,98329.94
2022-11-18T15:53:46.727Z,98308.25
2022-11-18T15:56:22.599Z,98350.91
2022-11-18T15:59:10.028Z,98334.00
2022-11-18T16:01:42.539Z,98346.53
2022-11-18T16:04:11.948Z,98336.03
2022-11-18T16:06:39.226Z,98378.50
2022-11-18T16:09:07.113Z,98356.13
2022-11-18T16:11:34.351Z,98347.63
2022-11-18T16:14:02.978Z,98352.78
2022-11-18T16:16:30.607Z,98380.31
2022-11-18T16:18:59.435Z,98382.25
2022-11-18T16:21:27.501Z,98367.91
2022-11-18T16:23:56.285Z,98365.63
2022-11-18T16:26:23.264Z,98366.47
2022-11-18T16:28:50.165Z,98387.25
2022-11-18T16:31:17.309Z,98405.78
2022-11-18T16:33:44.333Z,98386.81
2022-11-18T16:36:11.146Z,98407.72
2022-11-18T16:38:38.151Z,98405.03
2022-11-18T16:41:05.097Z,98404.66
2022-11-18T16:43:32.086Z,98403.81
2022-11-18T16:45:58.921Z,98421.03
2022-11-18T16:48:25.758Z,98413.28
2022-11-18T16:51:17.705Z,98423.59
2022-11-18T16:53:49.232Z,98450.94
2022-11-18T16:56:16.219Z,98454.22
2022-11-18T16:58:43.469Z,98463.72
2022-11-18T17:01:23.340Z,98456.28
2022-11-18T17:03:54.400Z,98474.84
2022-11-18T17:06:22.831Z,98457.38
2022-11-18T17:08:50.429Z,98474.16
2022-11-18T17:11:17.801Z,98482.22
2022-11-18T17:13:45.674Z,98474.06
2022-11-18T17:16:15.169Z,98490.91
2022-11-18T17:18:42.662Z,98507.00
2022-11-18T17:21:18.105Z,98520.31
2022-11-18T17:23:46.396Z,98501.63
2022-11-18T17:26:16.772Z,98517.59
2022-11-18T17:28:43.829Z,98519.88
2022-11-18T17:31:16.791Z,98522.34
2022-11-18T17:33:44.892Z,98554.47
2022-11-18T17:36:20.383Z,98556.28
2022-11-18T17:38:49.434Z,98606.75
2022-11-18T17:41:18.923Z,98557.44
2022-11-18T17:43:45.961Z,98580.25
2022-11-18T17:46:12.836Z,98569.69
2022-11-18T17:48:39.779Z,98596.16
2022-11-18T17:51:06.917Z,98607.66
2022-11-18T17:53:34.199Z,98622.50
2022-11-18T17:56:04.025Z,98569.69
2022-11-18T17:58:31.734Z,98593.69
2022-11-18T18:01:16.911Z,98616.06
2022-11-18T18:03:44.723Z,98615.81
2022-11-18T18:06:13.631Z,98634.09
2022-11-18T18:08:42.064Z,98636.81
2022-11-18T18:11:14.502Z,98636.34
2022-11-18T18:13:43.550Z,98655.25
2022-11-18T18:16:11.993Z,98661.25
2022-11-18T18:18:38.962Z,98645.53
2022-11-18T18:21:11.420Z,98653.94
2022-11-18T18:23:39.840Z,98661.81
2022-11-18T18:26:08.548Z,98658.59
2022-11-18T18:28:35.439Z,98657.84
2022-11-18T18:31:06.541Z,98660.59
2022-11-18T18:33:37.498Z,98661.91
2022-11-18T18:36:06.660Z,98669.91
2022-11-18T18:38:36.013Z,98701.13
2022-11-18T18:41:06.287Z,98695.78
2022-11-18T18:43:33.536Z,98705.91
2022-11-18T18:46:11.055Z,98712.59
2022-11-18T18:48:38.185Z,98705.91
2022-11-18T18:51:05.586Z,98702.84
2022-11-18T18:53:33.196Z,98714.09
2022-11-18T18:56:00.157Z,98683.72
2022-11-18T18:58:28.446Z,98701.38
2022-11-18T19:00:58.237Z,98722.16
2022-11-18T19:03:25.394Z,98688.03
2022-11-18T19:06:27.442Z,98733.38
2022-11-18T19:08:39.351Z,98734.88
2022-11-18T19:11:06.669Z,98741.47
2022-11-18T19:13:33.504Z,98726.91
2022-11-18T19:16:05.943Z,98739.31
2022-11-18T19:18:35.935Z,98763.03
2022-11-18T19:21:02.884Z,98755.03
2022-11-18T19:23:29.921Z,98763.13
2022-11-18T19:26:02.651Z,98773.59
2022-11-18T19:28:29.516Z,98762.59
2022-11-18T19:30:59.931Z,98727.34
2022-11-18T19:33:26.898Z,98770.78
2022-11-18T19:35:53.702Z,98778.66
2022-11-18T19:38:20.660Z,98753.31
2022-11-18T19:40:47.544Z,98780.69
2022-11-18T19:43:14.532Z,98754.19
2022-11-18T19:45:51.751Z,98771.66
2022-11-18T19:48:19.119Z,98784.34
2022-11-18T19:50:46.090Z,98789.22
2022-11-18T19:53:13.137Z,98796.66
2022-11-18T19:55:39.954Z,98806.13
2022-11-18T19:58:07.631Z,98813.91
2022-11-18T20:00:34.476Z,98805.16
2022-11-18T20:03:01.335Z,98805.69
2022-11-18T20:05:28.262Z,98828.75
2022-11-18T20:07:55.725Z,98828.56
2022-11-18T20:10:22.608Z,98827.06
2022-11-18T20:12:49.557Z,98820.69
2022-11-18T20:15:16.477Z,98835.03
2022-11-18T20:17:43.383Z,98852.06
2022-11-18T20:20:10.712Z,98831.81
2022-11-18T20:22:37.757Z,98878.78
2022-11-18T20:25:05.074Z,98870.84
2022-11-18T20:27:32.297Z,98865.44
2022-11-18T20:29:59.205Z,98872.78
2022-11-18T20:32:26.047Z,98893.03
2022-11-18T20:34:52.922Z,98908.38
2022-11-18T20:37:22.334Z,98895.97
2022-11-18T20:39:52.505Z,98915.59
2022-11-18T20:42:19.319Z,98915.88
2022-11-18T20:44:46.232Z,98925.75
2022-11-18T20:47:13.019Z,98939.03
2022-11-18T20:49:39.959Z,98937.66
2022-11-18T20:52:07.053Z,98956.09
2022-11-18T20:54:34.007Z,98948.41
2022-11-18T20:57:00.858Z,98947.06
2022-11-18T20:59:27.788Z,98954.41
2022-11-18T21:01:54.629Z,98951.84
2022-11-18T21:04:21.672Z,98977.06
2022-11-18T21:06:48.465Z,98988.31
2022-11-18T21:09:15.608Z,98962.25
2022-11-18T21:11:42.425Z,98975.38
2022-11-18T21:14:12.225Z,98991.47
2022-11-18T21:16:40.677Z,98970.66
2022-11-18T21:19:07.803Z,99001.25
2022-11-18T21:21:35.231Z,99010.72
2022-11-18T21:24:03.463Z,98990.19
2022-11-18T21:26:32.863Z,99013.50
2022-11-18T21:29:01.698Z,98992.72
2022-11-18T21:31:29.728Z,99012.41
2022-11-18T21:33:57.103Z,98993.16
2022-11-18T21:36:25.787Z,99025.44
2022-11-18T21:38:53.508Z,99034.34
2022-11-18T21:41:20.676Z,99039.19
2022-11-18T21:44:04.909Z,99055.38
2022-11-18T21:46:32.256Z,99052.00
2022-11-18T21:49:00.477Z,99043.88
2022-11-18T21:51:28.061Z,99065.03
2022-11-18T21:53:54.984Z,99067.09
2022-11-18T21:56:24.434Z,99058.13
2022-11-18T21:58:52.435Z,99059.34
2022-11-18T22:01:21.948Z,99075.38
2022-11-18T22:03:55.247Z,99095.44
2022-11-18T22:06:24.786Z,99092.06
2022-11-18T22:08:52.745Z,99096.44
2022-11-18T22:11:20.177Z,99097.25
2022-11-18T22:13:47.019Z,99109.19
2022-11-18T22:16:16.667Z,99101.00
2022-11-18T22:18:45.506Z,99096.91
2022-11-18T22:21:14.852Z,99090.44
2022-11-18T22:23:42.008Z,99102.84
2022-11-18T22:26:14.536Z,99099.53
2022-11-18T22:28:42.133Z,99068.47
2022-11-18T22:31:14.942Z,99109.63
2022-11-18T22:33:42.072Z,99132.00
2022-11-18T22:36:11.593Z,99094.63
2022-11-18T22:38:38.552Z,99139.22
2022-11-18T22:41:07.854Z,99134.03
2022-11-18T22:43:35.721Z,99147.22
2022-11-18T22:46:05.124Z,99173.34
2022-11-18T22:48:32.364Z,99154.22
2022-11-18T22:51:04.361Z,99135.97
2022-11-18T22:53:32.676Z,99160.78
2022-11-18T22:56:08.263Z,99128.78
2022-11-18T22:58:35.539Z,99130.78
2022-11-18T23:01:13.926Z,99160.13
2022-11-18T23:03:41.387Z,99141.75
2022-11-18T23:06:09.225Z,99167.81
2022-11-18T23:08:38.821Z,99172.16
2022-11-18T23:11:11.503Z,99166.66
2022-11-18T23:13:39.745Z,99169.63
2022-11-18T23:16:06.725Z,99160.41
2022-11-18T23:18:33.737Z,99171.53
2022-11-18T23:21:02.280Z,99185.56
2022-11-18T23:23:29.886Z,99187.59
2022-11-18T23:26:07.528Z,99187.94
2022-11-18T23:28:34.636Z,99171.69
2022-11-18T23:31:06.821Z,99199.03
2022-11-18T23:33:34.552Z,99227.88
2022-11-18T23:36:02.052Z,99234.97
2022-11-18T23:38:29.733Z,99238.78
2022-11-18T23:40:58.152Z,99238.44
2022-11-18T23:43:26.194Z,99256.91
2022-11-18T23:45:54.046Z,99243.69
2022-11-18T23:48:22.304Z,99258.72
2022-11-18T23:51:04.211Z,99257.69
2022-11-18T23:53:32.203Z,99245.84
2022-11-18T23:56:00.607Z,99257.38
2022-11-18T23:58:27.750Z,99248.91
